createdAt,value
2022-11-27T00:00:06.629Z,100742.16
2022-11-27T00:05:08.876Z,100738.55
2022-11-27T00:10:10.924Z,100736.34
2022-11-27T00:15:17.064Z,100736.66
2022-11-27T00:20:18.986Z,100741.81
2022-11-27T00:25:20.607Z,100746.09
2022-11-27T00:30:22.306Z,100745.92
2022-11-27T00:35:23.918Z,100746.60
2022-11-27T00:40:25.504Z,100736.52
2022-11-27T00:45:27.813Z,100738.21
2022-11-27T00:50:31.394Z,100736.34
2022-11-27T00:55:33.012Z,100737.36
2022-11-27T01:00:34.668Z,100738.04
2022-11-27T01:05:37.046Z,100738.05
2022-11-27T01:10:39.010Z,100735.64
2022-11-27T01:15:40.650Z,100739.06
2022-11-27T01:20:42.266Z,100739.58
2022-11-27T01:25:43.878Z,100740.27
2022-11-27T01:30:45.630Z,100742.84
2022-11-27T01:35:59.332Z,100745.24
2022-11-27T01:41:06.488Z,100745.05
2022-11-27T01:46:31.538Z,100749.67
2022-11-27T01:51:33.488Z,100752.40
2022-11-27T01:56:35.490Z,100756.16
2022-11-27T02:01:37.213Z,100750.53
2022-11-27T02:06:38.926Z,100755.67
2022-11-27T02:12:10.530Z,100762.16
2022-11-27T02:17:45.557Z,100761.81
2022-11-27T02:22:56.613Z,100762.50
2022-11-27T02:28:54.070Z,100762.15
2022-11-27T02:34:06.629Z,100770.52
2022-11-27T02:39:14.459Z,100764.71
2022-11-27T02:44:17.749Z,100761.64
2022-11-27T02:49:20.486Z,100763.02
2022-11-27T02:54:28.158Z,100770.19
2022-11-27T02:59:33.011Z,100771.21
2022-11-27T03:04:46.194Z,100772.58
2022-11-27T03:09:52.450Z,100780.59
2022-11-27T03:14:54.549Z,100781.29
2022-11-27T03:20:03.148Z,100784.54
2022-11-27T03:25:05.154Z,100781.46
2022-11-27T03:30:09.513Z,100781.12
2022-11-27T03:35:15.770Z,100784.20
2022-11-27T03:40:18.453Z,100793.27
2022-11-27T03:45:43.058Z,100800.43
2022-11-27T03:51:25.709Z,100804.71
2022-11-27T03:57:21.695Z,100803.85
2022-11-27T04:02:40.814Z,100797.17
2022-11-27T04:07:42.518Z,100795.64
2022-11-27T04:12:44.271Z,100797.17
2022-11-27T04:17:45.914Z,100797.69
2022-11-27T04:22:47.479Z,100796.63
2022-11-27T04:27:49.285Z,100792.48
2022-11-27T04:32:50.901Z,100785.42
2022-11-27T04:37:52.520Z,100784.23
2022-11-27T04:42:54.097Z,100780.63
2022-11-27T04:47:55.802Z,100784.58
2022-11-27T04:52:57.414Z,100782.20
2022-11-27T04:57:59.016Z,100773.49
2022-11-27T05:03:00.743Z,100774.86
2022-11-27T05:08:02.479Z,100776.77
2022-11-27T05:13:04.075Z,100779.48
2022-11-27T05:18:05.686Z,100780.52
2022-11-27T05:23:07.275Z,100779.30
2022-11-27T05:28:08.879Z,100780.98
2022-11-27T05:33:10.551Z,100788.32
2022-11-27T05:38:12.666Z,100792.96
2022-11-27T05:43:14.274Z,100796.77
2022-11-27T05:48:15.871Z,100795.93
2022-11-27T05:53:17.480Z,100798.69
2022-11-27T05:58:19.181Z,100802.14
2022-11-27T06:03:20.871Z,100805.04
2022-11-27T06:08:23.170Z,100803.46
2022-11-27T06:13:24.758Z,100801.40
2022-11-27T06:18:26.330Z,100799.18
2022-11-27T06:23:27.906Z,100794.91
2022-11-27T06:28:29.505Z,100793.55
2022-11-27T06:33:31.090Z,100791.66
2022-11-27T06:38:35.065Z,100792.18
2022-11-27T06:43:37.404Z,100786.52
2022-11-27T06:48:39.182Z,100786.19
2022-11-27T06:53:41.940Z,100788.61
2022-11-27T06:58:44.179Z,100786.88
2022-11-27T07:03:46.130Z,100788.38
2022-11-27T07:08:48.391Z,100786.98
2022-11-27T07:13:54.834Z,100784.05
2022-11-27T07:19:04.859Z,100788.70
2022-11-27T07:24:07.201Z,100779.30
2022-11-27T07:29:08.787Z,100776.05
2022-11-27T07:34:15.945Z,100777.06
2022-11-27T07:39:39.361Z,100777.39
2022-11-27T07:44:43.161Z,100779.77
2022-11-27T07:49:44.830Z,100780.96
2022-11-27T07:54:46.443Z,100780.10
2022-11-27T07:59:48.143Z,100780.66
2022-11-27T08:04:49.834Z,100785.95
2022-11-27T08:09:51.461Z,100785.95
2022-11-27T08:14:53.093Z,100796.89
2022-11-27T08:19:54.752Z,100800.10
2022-11-27T08:24:56.326Z,100801.84
2022-11-27T08:29:58.486Z,100801.17
2022-11-27T08:35:00.132Z,100795.71
2022-11-27T08:40:02.333Z,100796.21
2022-11-27T08:45:04.513Z,100793.80
2022-11-27T08:50:07.371Z,100795.98
2022-11-27T08:55:09.274Z,100798.19
2022-11-27T09:00:11.755Z,100799.71
2022-11-27T09:05:13.387Z,100794.40
2022-11-27T09:10:15.089Z,100789.26
2022-11-27T09:15:17.942Z,100794.72
2022-11-27T09:20:19.629Z,100787.29
2022-11-27T09:25:21.251Z,100783.69
2022-11-27T09:30:23.217Z,100784.50
2022-11-27T09:35:24.930Z,100782.27
2022-11-27T09:40:26.664Z,100783.80
2022-11-27T09:45:29.749Z,100779.98
2022-11-27T09:50:36.677Z,100776.13
2022-11-27T09:55:44.054Z,100777.42
2022-11-27T10:00:47.222Z,100776.02
2022-11-27T10:06:10.668Z,100779.63
2022-11-27T10:11:45.636Z,100777.08
2022-11-27T10:17:00.057Z,100770.88
2022-11-27T10:22:19.624Z,100763.77
2022-11-27T10:27:44.604Z,100757.36
2022-11-27T10:32:55.503Z,100753.55
2022-11-27T10:38:16.854Z,100750.64
2022-11-27T10:43:24.336Z,100746.87
2022-11-27T10:48:28.815Z,100743.77
2022-11-27T10:53:35.511Z,100739.08
2022-11-27T10:58:57.124Z,100736.38
2022-11-27T11:04:31.177Z,100729.38
2022-11-27T11:09:35.409Z,100725.90
2022-11-27T11:14:40.435Z,100724.51
2022-11-27T11:19:43.254Z,100725.01
2022-11-27T11:24:48.662Z,100726.06
2022-11-27T11:29:59.411Z,100724.52
2022-11-27T11:35:31.629Z,100725.13
2022-11-27T11:40:36.591Z,100727.08
2022-11-27T11:45:48.121Z,100723.13
2022-11-27T11:51:23.765Z,100717.11
2022-11-27T11:56:34.751Z,100715.63
2022-11-27T12:02:20.079Z,100718.95
2022-11-27T12:07:59.088Z,100716.05
2022-11-27T12:13:20.975Z,100711.67
2022-11-27T12:18:42.453Z,100712.11
2022-11-27T12:23:57.201Z,100712.11
2022-11-27T12:29:25.459Z,100710.48
2022-11-27T12:34:54.942Z,100708.47
2022-11-27T12:40:16.130Z,100701.20
2022-11-27T12:45:23.030Z,100697.80
2022-11-27T12:50:39.790Z,100691.33
2022-11-27T12:55:48.822Z,100690.07
2022-11-27T13:00:52.805Z,100688.19
2022-11-27T13:06:13.624Z,100689.25
2022-11-27T13:11:18.547Z,100687.80
2022-11-27T13:16:45.161Z,100686.06
2022-11-27T13:21:48.643Z,100683.55
2022-11-27T13:27:12.062Z,100679.81
2022-11-27T13:32:23.256Z,100680.25
2022-11-27T13:37:40.668Z,100679.38
2022-11-27T13:42:47.599Z,100675.66
2022-11-27T13:47:50.961Z,100672.64
2022-11-27T13:53:03.534Z,100669.27
2022-11-27T13:58:06.675Z,100667.39
2022-11-27T14:03:22.512Z,100669.09
2022-11-27T14:08:33.195Z,100669.70
2022-11-27T14:13:43.116Z,100668.41
2022-11-27T14:18:51.737Z,100664.17
2022-11-27T14:23:53.739Z,100661.95
2022-11-27T14:28:57.229Z,100660.59
2022-11-27T14:34:19.644Z,100659.91
2022-11-27T14:39:44.021Z,100659.98
2022-11-27T14:44:45.755Z,100659.13
2022-11-27T14:49:56.123Z,100658.09
2022-11-27T14:54:59.979Z,100660.64
2022-11-27T15:00:16.097Z,100659.81
2022-11-27T15:05:28.481Z,100653.00
2022-11-27T15:10:41.002Z,100649.09
2022-11-27T15:15:43.969Z,100642.29
2022-11-27T15:20:46.215Z,100638.05
2022-11-27T15:26:07.232Z,100642.70
2022-11-27T15:31:49.938Z,100636.72
2022-11-27T15:37:00.900Z,100634.22
2022-11-27T15:42:08.024Z,100634.77
2022-11-27T15:47:35.600Z,100631.42
2022-11-27T15:52:37.283Z,100623.55
2022-11-27T15:57:39.016Z,100623.87
2022-11-27T16:02:40.727Z,100626.73
2022-11-27T16:07:42.467Z,100633.86
2022-11-27T16:12:44.065Z,100638.84
2022-11-27T16:17:45.644Z,100638.13
2022-11-27T16:22:47.257Z,100636.08
2022-11-27T16:27:48.871Z,100628.19
2022-11-27T16:32:50.479Z,100623.30
2022-11-27T16:37:52.118Z,100617.23
2022-11-27T16:42:53.709Z,100615.89
2022-11-27T16:47:55.388Z,100613.86
2022-11-27T16:52:57.682Z,100617.22
2022-11-27T16:57:59.490Z,100623.18
2022-11-27T17:03:01.093Z,100629.02
2022-11-27T17:08:02.794Z,100619.93
2022-11-27T17:13:04.435Z,100619.71
2022-11-27T17:18:06.034Z,100625.44
2022-11-27T17:23:07.980Z,100623.45
2022-11-27T17:28:09.714Z,100624.69
2022-11-27T17:33:11.791Z,100621.28
2022-11-27T17:38:13.478Z,100618.36
2022-11-27T17:43:15.063Z,100611.81
2022-11-27T17:48:16.750Z,100607.63
2022-11-27T17:53:18.959Z,100597.89
2022-11-27T17:58:20.885Z,100594.98
2022-11-27T18:03:22.482Z,100588.71
2022-11-27T18:08:24.099Z,100586.67
2022-11-27T18:13:31.677Z,100581.45
2022-11-27T18:18:34.094Z,100582.31
2022-11-27T18:23:54.018Z,100582.52
2022-11-27T18:29:00.801Z,100576.42
2022-11-27T18:34:02.509Z,100578.02
2022-11-27T18:39:04.459Z,100568.23
2022-11-27T18:44:06.155Z,100562.92
2022-11-27T18:49:07.765Z,100555.94
2022-11-27T18:54:09.383Z,100557.21
2022-11-27T18:59:11.070Z,100560.36
2022-11-27T19:04:14.394Z,100562.14
2022-11-27T19:09:16.923Z,100559.07
2022-11-27T19:14:18.554Z,100557.69
2022-11-27T19:24:43.751Z,100548.36
2022-11-27T19:29:45.408Z,100556.77
2022-11-27T19:34:50.115Z,100553.56
2022-11-27T19:39:51.778Z,100556.18
2022-11-27T19:44:55.273Z,100559.80
2022-11-27T19:49:57.082Z,100559.83
2022-11-27T19:54:58.677Z,100559.04
2022-11-27T20:00:00.394Z,100559.22
2022-11-27T20:05:03.773Z,100557.83
2022-11-27T20:10:06.291Z,100547.45
2022-11-27T20:15:13.996Z,100548.91
2022-11-27T20:20:16.342Z,100546.98
2022-11-27T20:25:19.897Z,100552.11
2022-11-27T20:30:22.238Z,100546.91
2022-11-27T20:35:23.914Z,100549.20
2022-11-27T20:40:27.600Z,100548.13
2022-11-27T20:45:29.306Z,100543.60
2022-11-27T20:50:31.181Z,100544.48
2022-11-27T20:55:34.035Z,100540.73
2022-11-27T21:00:35.743Z,100541.07
2022-11-27T21:05:42.511Z,100539.25
2022-11-27T21:10:44.983Z,100533.15
2022-11-27T21:15:47.650Z,100529.77
2022-11-27T21:20:49.372Z,100530.81
2022-11-27T21:25:50.949Z,100528.52
2022-11-27T21:30:52.583Z,100523.76
2022-11-27T21:35:55.304Z,100524.67
2022-11-27T21:40:56.912Z,100522.23
2022-11-27T21:46:05.719Z,100521.55
2022-11-27T21:51:15.036Z,100513.41
2022-11-27T21:56:18.643Z,100513.39
2022-11-27T22:01:23.949Z,100516.09
2022-11-27T22:06:30.001Z,100510.95
2022-11-27T22:11:32.097Z,100517.10
2022-11-27T22:16:44.125Z,100515.31
2022-11-27T22:21:46.811Z,100518.19
2022-11-27T22:26:48.551Z,100519.05
2022-11-27T22:31:52.704Z,100512.73
2022-11-27T22:36:57.163Z,100512.33
2022-11-27T22:41:58.788Z,100508.30
2022-11-27T22:47:00.378Z,100501.76
2022-11-27T22:52:01.982Z,100500.27
2022-11-27T22:57:03.625Z,100493.09
2022-11-27T23:02:06.535Z,100487.08
2022-11-27T23:07:10.106Z,100478.29
2022-11-27T23:12:11.679Z,100472.36
2022-11-27T23:17:14.352Z,100474.48
2022-11-27T23:22:15.933Z,100467.77
2022-11-27T23:27:17.526Z,100467.08
2022-11-27T23:32:19.178Z,100462.94
2022-11-27T23:37:20.833Z,100461.23
2022-11-27T23:42:22.459Z,100453.28
2022-11-27T23:47:24.064Z,100450.08
2022-11-27T23:52:25.802Z,100448.40
2022-11-27T23:57:27.476Z,100445.72
